Time;durP1;ratioP1;P1;durP2;ratioP2;P2;SDS_P1;SDS_P2;PMS_P1;PMS_P2;Temp;Humidity;BMP_temperature;BMP_pressure;BME280_temperature;BME280_humidity;BME280_pressure;Samples;Min_cycle;Max_cycle;Signal;HPM_P1;HPM_P2
2022/05/14 00:00:51;;;;;;;;;;;;;;;22.86;nan;95081.09;2066044;28;1864;-64
2022/05/14 00:01:52;;;;;;;;;;;;;;;22.87;nan;95086.22;2073614;28;1646;-64
2022/05/14 00:02:55;;;;;;;;;;;;;;;22.86;nan;95076.56;2073504;28;1028;-63
2022/05/14 00:03:57;;;;;;;;;;;;;;;22.86;nan;95084.59;2065850;28;1697;-62
2022/05/14 00:04:59;;;;;;;;;;;;;;;22.86;nan;95078.44;2065667;28;1101;-62
2022/05/14 00:06:01;;;;;;;;;;;;;;;22.87;nan;95083.56;2073158;28;1342;-62
2022/05/14 00:07:03;;;;;;;;;;;;;;;22.87;nan;95082.75;2069774;28;1906;-62
2022/05/14 00:08:05;;;;;;;;;;;;;;;22.86;nan;95079.25;2066366;28;1622;-64
2022/05/14 00:09:07;;;;;;;;;;;;;;;22.86;nan;95076.56;2060727;28;1070;-62
2022/05/14 00:10:10;;;;;;;;;;;;;;;22.87;nan;95078.19;2065484;28;1068;-63
2022/05/14 00:13:53;;;;;;;;;;;;;;;22.87;nan;95075.50;2065664;28;1024;-63
2022/05/14 00:14:55;;;;;;;;;;;;;;;22.89;nan;95081.47;2065712;28;1013;-63
2022/05/14 00:15:56;;;;;;;;;;;;;;;22.87;nan;95072.84;2065765;28;1012;-63
2022/05/14 00:16:58;;;;;;;;;;;;;;;22.90;nan;95071.56;2065651;28;886;-61
2022/05/14 00:18:01;;;;;;;;;;;;;;;22.90;nan;95082.28;2067352;28;1616;-62
2022/05/14 00:19:04;;;;;;;;;;;;;;;22.88;nan;95074.50;2072917;28;1530;-63
2022/05/14 00:20:05;;;;;;;;;;;;;;;22.87;nan;95072.84;2064828;28;1540;-61
2022/05/14 00:21:07;;;;;;;;;;;;;;;22.88;nan;95074.50;2072378;28;1542;-61
2022/05/14 00:22:09;;;;;;;;;;;;;;;22.87;nan;95072.03;2080621;28;1096;-61
2022/05/14 00:23:11;;;;;;;;;;;;;;;22.87;nan;95078.19;2080206;28;1562;-62
2022/05/14 00:24:12;;;;;;;;;;;;;;;22.86;nan;95068.53;2073190;28;1108;-63
2022/05/14 00:25:14;;;;;;;;;;;;;;;22.87;nan;95067.47;2064806;28;1761;-62
2022/05/14 00:26:16;;;;;;;;;;;;;;;22.86;nan;95067.72;2071807;28;1525;-62
2022/05/14 00:27:18;;;;;;;;;;;;;;;22.87;nan;95067.47;2073573;28;1906;-63
2022/05/14 00:28:19;;;;;;;;;;;;;;;22.89;nan;95076.13;2071780;28;1548;-62
2022/05/14 00:29:21;;;;;;;;;;;;;;;22.88;nan;95076.31;2073527;28;1048;-62
2022/05/14 00:30:24;;;;;;;;;;;;;;;22.88;nan;95076.31;2073498;28;785;-62
2022/05/14 00:31:26;;;;;;;;;;;;;;;22.88;nan;95084.38;2068199;28;1484;-63
2022/05/14 00:32:27;;;;;;;;;;;;;;;22.87;nan;95077.38;2081643;28;1025;-61
2022/05/14 00:33:29;;;;;;;;;;;;;;;22.88;nan;95074.50;2081658;28;867;-61
2022/05/14 00:34:30;;;;;;;;;;;;;;;22.88;nan;95065.59;2076766;28;1743;-63
2022/05/14 00:35:32;;;;;;;;;;;;;;;22.88;nan;95065.59;2081364;28;1191;-63
2022/05/14 00:36:34;;;;;;;;;;;;;;;22.87;nan;95067.47;2080062;28;1510;-64
2022/05/14 00:37:36;;;;;;;;;;;;;;;22.87;nan;95066.66;2080876;28;1518;-62
2022/05/14 00:38:38;;;;;;;;;;;;;;;22.87;nan;95067.47;2073922;28;1654;-63
2022/05/14 00:39:40;;;;;;;;;;;;;;;22.87;nan;95067.47;2063560;28;1669;-61
2022/05/14 00:40:45;;;;;;;;;;;;;;;22.86;nan;95065.03;2072415;28;989;-64
2022/05/14 00:41:47;;;;;;;;;;;;;;;22.89;nan;95067.25;2078031;28;1543;-63
2022/05/14 00:42:49;;;;;;;;;;;;;;;22.88;nan;95068.28;2073392;28;976;-63
2022/05/14 00:43:52;;;;;;;;;;;;;;;22.88;nan;95053.06;2073103;28;1438;-63
2022/05/14 00:44:54;;;;;;;;;;;;;;;22.92;nan;95059.59;2065557;28;1028;-63
2022/05/14 00:45:58;;;;;;;;;;;;;;;22.90;nan;95061.66;2064979;28;997;-63
2022/05/14 00:47:03;;;;;;;;;;;;;;;22.90;nan;95067.03;2064758;28;1898;-63
2022/05/14 00:48:06;;;;;;;;;;;;;;;22.90;nan;95071.56;2067200;28;1657;-62
2022/05/14 00:49:08;;;;;;;;;;;;;;;22.90;nan;95072.38;2073467;28;1304;-61
2022/05/14 00:50:17;;;;;;;;;;;;;;;22.89;nan;95073.44;2073737;28;990;-62
2022/05/14 00:51:28;;;;;;;;;;;;;;;22.87;nan;95067.47;2073892;28;1523;-61
2022/05/14 00:52:29;;;;;;;;;;;;;;;22.86;nan;95059.69;2081753;28;973;-62
2022/05/14 00:53:35;;;;;;;;;;;;;;;22.87;nan;95064.78;2077373;28;1012;-62
2022/05/14 00:54:41;;;;;;;;;;;;;;;22.88;nan;95068.28;2076165;28;1174;-62
2022/05/14 00:55:43;;;;;;;;;;;;;;;22.87;nan;95067.47;2073502;28;1092;-62
2022/05/14 00:56:52;;;;;;;;;;;;;;;22.88;nan;95077.16;2081048;28;1364;-62
2022/05/14 00:57:54;;;;;;;;;;;;;;;22.86;nan;95071.22;2080686;28;1615;-63
2022/05/14 00:59:01;;;;;;;;;;;;;;;22.87;nan;95070.16;2073441;28;885;-62
2022/05/14 01:00:05;;;;;;;;;;;;;;;22.78;nan;95063.47;2078497;28;1487;-61
2022/05/14 01:01:07;;;;;;;;;;;;;;;22.88;nan;95071.81;2072374;28;1520;-62
2022/05/14 01:02:09;;;;;;;;;;;;;;;22.87;nan;95072.84;2079833;28;1621;-61
2022/05/14 01:03:10;;;;;;;;;;;;;;;22.88;nan;95068.28;2081207;28;1316;-62
2022/05/14 01:04:13;;;;;;;;;;;;;;;22.87;nan;95072.03;2081603;28;1121;-62
2022/05/14 01:05:16;;;;;;;;;;;;;;;22.87;nan;95072.03;2075445;28;1127;-65
2022/05/14 01:06:19;;;;;;;;;;;;;;;22.86;nan;95071.22;2080124;28;806;-63
2022/05/14 01:07:22;;;;;;;;;;;;;;;22.87;nan;95066.66;2075896;28;1981;-62
2022/05/14 01:08:23;;;;;;;;;;;;;;;22.87;nan;95062.13;2073026;28;1663;-62
2022/05/14 01:09:25;;;;;;;;;;;;;;;22.89;nan;95069.94;2073587;28;1016;-62
2022/05/14 01:10:31;;;;;;;;;;;;;;;22.88;nan;95066.44;2073079;28;1056;-62
2022/05/14 01:11:34;;;;;;;;;;;;;;;22.89;nan;95065.41;2073211;28;1514;-62
2022/05/14 01:12:37;;;;;;;;;;;;;;;22.90;nan;95071.56;2065064;28;1130;-63
2022/05/14 01:13:39;;;;;;;;;;;;;;;22.94;nan;95068.22;2069847;28;1654;-62
2022/05/14 01:14:40;;;;;;;;;;;;;;;23.02;nan;95067.91;2089870;28;1088;-61
2022/05/14 01:15:48;;;;;;;;;;;;;;;23.05;nan;95074.69;2090702;28;1092;-61
2022/05/14 01:16:51;;;;;;;;;;;;;;;23.08;nan;95073.41;2068199;28;1530;-65
2022/05/14 01:17:53;;;;;;;;;;;;;;;23.10;nan;95072.13;2081289;28;1501;-62
2022/05/14 01:18:55;;;;;;;;;;;;;;;23.12;nan;95075.41;2079128;28;1616;-62
2022/05/14 01:19:56;;;;;;;;;;;;;;;23.13;nan;95078.91;2083420;28;1012;-61
2022/05/14 01:21:00;;;;;;;;;;;;;;;23.15;nan;95068.78;2082187;28;1697;-61
2022/05/14 01:22:05;;;;;;;;;;;;;;;23.15;nan;95074.16;2083419;28;1103;-61
2022/05/14 01:23:19;;;;;;;;;;;;;;;23.16;nan;95075.78;2082407;28;1504;-61
2022/05/14 01:26:29;;;;;;;;;;;;;;;23.16;nan;95065.88;2078309;28;1555;-61
2022/05/14 01:27:31;;;;;;;;;;;;;;;23.17;nan;95069.38;2071362;28;1891;-61
2022/05/14 01:28:33;;;;;;;;;;;;;;;23.18;nan;95062.97;2070410;28;1599;-61
2022/05/14 01:29:36;;;;;;;;;;;;;;;23.17;nan;95061.34;2081243;28;1430;-62
2022/05/14 01:30:44;;;;;;;;;;;;;;;23.17;nan;95061.34;2083071;28;1186;-61
2022/05/14 01:31:46;;;;;;;;;;;;;;;23.16;nan;95060.53;2083247;28;802;-61
2022/05/14 01:33:04;;;;;;;;;;;;;;;23.17;nan;95069.38;2082922;28;1008;-62
2022/05/14 01:34:10;;;;;;;;;;;;;;;23.15;nan;95066.91;2083204;28;1099;-63
2022/05/14 01:35:15;;;;;;;;;;;;;;;23.15;nan;95068.78;2080766;28;1477;-61
2022/05/14 01:36:17;;;;;;;;;;;;;;;23.15;nan;95066.09;2066845;28;1002;-61
2022/05/14 01:37:20;;;;;;;;;;;;;;;23.16;nan;95060.53;2070236;28;1511;-62
2022/05/14 01:38:23;;;;;;;;;;;;;;;23.16;nan;95071.25;2079266;28;1538;-62
2022/05/14 01:39:25;;;;;;;;;;;;;;;23.15;nan;95066.09;2070761;28;1469;-62
2022/05/14 01:40:27;;;;;;;;;;;;;;;23.18;nan;95062.97;2081527;28;1430;-62
2022/05/14 01:41:29;;;;;;;;;;;;;;;23.16;nan;95060.53;2082984;28;1041;-61
2022/05/14 01:42:30;;;;;;;;;;;;;;;23.16;nan;95054.31;2082282;28;1446;-62
2022/05/14 01:43:32;;;;;;;;;;;;;;;23.15;nan;95058.06;2082865;28;1275;-64
2022/05/14 01:44:34;;;;;;;;;;;;;;;23.14;nan;95065.28;2083089;28;1029;-61
2022/05/14 01:45:36;;;;;;;;;;;;;;;23.15;nan;95056.19;2083278;28;1098;-61
2022/05/14 01:46:37;;;;;;;;;;;;;;;23.17;nan;95055.97;2078838;28;1639;-61
2022/05/14 01:47:39;;;;;;;;;;;;;;;23.17;nan;95048.75;2073608;28;1919;-61
2022/05/14 01:48:41;;;;;;;;;;;;;;;23.18;nan;95046.88;2074109;28;1784;-61
2022/05/14 01:49:42;;;;;;;;;;;;;;;23.18;nan;95046.88;2074777;28;1725;-61
2022/05/14 01:50:44;;;;;;;;;;;;;;;23.17;nan;95051.44;2063915;28;1441;-62
2022/05/14 01:51:46;;;;;;;;;;;;;;;23.17;nan;95042.59;2065410;28;1237;-60
2022/05/14 01:52:47;;;;;;;;;;;;;;;23.18;nan;95047.69;2066789;28;1092;-61
2022/05/14 01:53:49;;;;;;;;;;;;;;;23.19;nan;95045.84;2078529;28;1445;-60
2022/05/14 01:54:51;;;;;;;;;;;;;;;23.16;nan;95036.41;2078513;28;1459;-61
2022/05/14 01:55:53;;;;;;;;;;;;;;;23.16;nan;95044.44;2074819;28;999;-60
2022/05/14 01:56:54;;;;;;;;;;;;;;;23.16;nan;95041.78;2082187;28;1105;-60
2022/05/14 01:57:56;;;;;;;;;;;;;;;23.17;nan;95046.06;2087483;28;1448;-60
2022/05/14 01:58:58;;;;;;;;;;;;;;;23.16;nan;95044.44;2075415;28;1650;-60
2022/05/14 01:59:59;;;;;;;;;;;;;;;23.17;nan;95047.94;2073623;28;1482;-66
2022/05/14 02:01:01;;;;;;;;;;;;;;;23.17;nan;95055.97;2076766;28;1475;-65
2022/05/14 02:02:07;;;;;;;;;;;;;;;23.19;nan;95048.50;2059631;28;1172;-64
2022/05/14 02:03:09;;;;;;;;;;;;;;;23.19;nan;95051.19;2066163;28;1085;-66
2022/05/14 02:04:13;;;;;;;;;;;;;;;23.17;nan;95048.75;2066752;28;1017;-66
2022/05/14 02:05:15;;;;;;;;;;;;;;;23.19;nan;95053.88;2066536;28;1041;-66
2022/05/14 02:06:18;;;;;;;;;;;;;;;23.18;nan;95046.88;2066682;28;1108;-66
2022/05/14 02:07:19;;;;;;;;;;;;;;;23.17;nan;95045.25;2067468;28;1518;-66
2022/05/14 02:08:21;;;;;;;;;;;;;;;23.15;nan;95047.34;2074815;28;1918;-67
2022/05/14 02:09:22;;;;;;;;;;;;;;;23.16;nan;95048.97;2074323;28;1104;-65
2022/05/14 02:10:24;;;;;;;;;;;;;;;23.17;nan;95050.63;2074647;28;1646;-65
2022/05/14 02:11:27;;;;;;;;;;;;;;;23.18;nan;95052.25;2074778;28;1088;-66
2022/05/14 02:12:29;;;;;;;;;;;;;;;23.18;nan;95046.88;2074126;28;1347;-65
2022/05/14 02:13:31;;;;;;;;;;;;;;;23.17;nan;95053.31;2065726;28;1000;-63
2022/05/14 02:14:32;;;;;;;;;;;;;;;23.15;nan;95041.97;2074360;28;1060;-66
2022/05/14 02:15:34;;;;;;;;;;;;;;;23.16;nan;95049.81;2072567;28;1665;-67
2022/05/14 02:16:36;;;;;;;;;;;;;;;23.10;nan;95044.53;2072174;28;1616;-66
2022/05/14 02:17:37;;;;;;;;;;;;;;;23.07;nan;95039.63;2075882;28;1625;-66
2022/05/14 02:18:39;;;;;;;;;;;;;;;23.02;nan;95038.44;2082709;28;1025;-67
2022/05/14 02:19:41;;;;;;;;;;;;;;;23.01;nan;95044.81;2082940;28;1052;-66
2022/05/14 02:20:42;;;;;;;;;;;;;;;23.01;nan;95052.06;2081844;28;1518;-66
2022/05/14 02:21:44;;;;;;;;;;;;;;;22.99;nan;95046.09;2082779;28;1108;-66
2022/05/14 02:22:46;;;;;;;;;;;;;;;22.97;nan;95051.69;2082447;28;1124;-66
2022/05/14 02:23:47;;;;;;;;;;;;;;;22.96;nan;95050.06;2081951;28;1533;-66
2022/05/14 02:24:49;;;;;;;;;;;;;;;22.94;nan;95052.16;2073895;28;1175;-63
2022/05/14 02:25:51;;;;;;;;;;;;;;;22.95;nan;95044.91;2081662;28;1157;-66
2022/05/14 02:26:52;;;;;;;;;;;;;;;22.94;nan;95046.78;2075079;28;1654;-65
2022/05/14 02:27:54;;;;;;;;;;;;;;;22.94;nan;95049.47;2069803;28;1504;-66
2022/05/14 02:28:55;;;;;;;;;;;;;;;22.92;nan;95043.50;2066198;28;1906;-65
2022/05/14 02:29:57;;;;;;;;;;;;;;;22.93;nan;95047.00;2066310;28;1129;-66
2022/05/14 02:30:59;;;;;;;;;;;;;;;22.93;nan;95050.50;2066212;28;1290;-65
2022/05/14 02:32:00;;;;;;;;;;;;;;;22.90;nan;95045.59;2065997;28;1356;-65
2022/05/14 02:33:02;;;;;;;;;;;;;;;22.90;nan;95045.59;2066162;28;1088;-65
2022/05/14 02:34:04;;;;;;;;;;;;;;;22.89;nan;95048.50;2066295;28;1024;-65
2022/05/14 02:35:05;;;;;;;;;;;;;;;22.89;nan;95043.97;2073433;28;1387;-64
2022/05/14 02:36:08;;;;;;;;;;;;;;;22.90;nan;95050.13;2075972;28;1090;-65
2022/05/14 02:37:09;;;;;;;;;;;;;;;22.90;nan;95048.28;2080945;28;996;-65
2022/05/14 02:38:12;;;;;;;;;;;;;;;22.89;nan;95046.66;2082575;28;1481;-64
2022/05/14 02:39:14;;;;;;;;;;;;;;;22.91;nan;95047.25;2088619;28;1801;-65
2022/05/14 02:40:15;;;;;;;;;;;;;;;22.90;nan;95042.91;2076507;28;1642;-64
2022/05/14 02:41:17;;;;;;;;;;;;;;;22.90;nan;95050.94;2074440;28;1123;-65
2022/05/14 02:42:19;;;;;;;;;;;;;;;22.91;nan;95043.75;2074021;28;1036;-65
2022/05/14 02:43:20;;;;;;;;;;;;;;;22.90;nan;95045.59;2074403;28;888;-66
2022/05/14 02:44:22;;;;;;;;;;;;;;;22.90;nan;95050.13;2074173;28;1033;-64
2022/05/14 02:45:24;;;;;;;;;;;;;;;22.89;nan;95049.31;2074318;28;1009;-66
2022/05/14 02:46:25;;;;;;;;;;;;;;;22.91;nan;95047.25;2073895;28;1113;-66
2022/05/14 02:47:27;;;;;;;;;;;;;;;22.89;nan;95052.00;2066948;28;1581;-63
2022/05/14 02:48:29;;;;;;;;;;;;;;;22.89;nan;95049.31;2083496;28;1983;-66
2022/05/14 02:49:30;;;;;;;;;;;;;;;22.89;nan;95043.97;2089809;28;1108;-65
2022/05/14 02:50:32;;;;;;;;;;;;;;;22.89;nan;95046.66;2074396;28;1088;-66
2022/05/14 02:51:34;;;;;;;;;;;;;;;22.89;nan;95049.31;2074317;28;1105;-67
2022/05/14 02:52:35;;;;;;;;;;;;;;;22.90;nan;95047.44;2073937;28;1054;-67
2022/05/14 02:53:37;;;;;;;;;;;;;;;22.88;nan;95047.69;2073817;28;1758;-66
2022/05/14 02:54:39;;;;;;;;;;;;;;;22.87;nan;95051.41;2073992;28;1654;-64
2022/05/14 02:55:41;;;;;;;;;;;;;;;22.88;nan;95049.53;2074019;28;1682;-67
2022/05/14 02:56:42;;;;;;;;;;;;;;;22.87;nan;95054.06;2066036;28;1040;-66
2022/05/14 02:57:44;;;;;;;;;;;;;;;22.88;nan;95052.22;2071527;28;1590;-66
2022/05/14 03:00:08;;;;;;;;;;;;;;;22.89;nan;95049.31;2073991;28;1203;-67
2022/05/14 03:01:10;;;;;;;;;;;;;;;22.87;nan;95046.03;2073442;28;1403;-63
2022/05/14 03:02:12;;;;;;;;;;;;;;;22.86;nan;95055.13;2075222;28;1862;-67
2022/05/14 03:03:13;;;;;;;;;;;;;;;22.88;nan;95062.94;2073077;28;1619;-67
2022/05/14 03:04:22;;;;;;;;;;;;;;;22.88;nan;95052.22;2073877;28;1363;-67
2022/05/14 03:05:24;;;;;;;;;;;;;;;22.88;nan;95060.25;2074184;28;1042;-67
2022/05/14 03:06:26;;;;;;;;;;;;;;;22.87;nan;95062.13;2073536;28;1648;-66
2022/05/14 03:07:27;;;;;;;;;;;;;;;22.87;nan;95053.25;2074272;28;1429;-66
2022/05/14 03:08:29;;;;;;;;;;;;;;;22.86;nan;95060.50;2080000;28;2009;-66
2022/05/14 03:09:31;;;;;;;;;;;;;;;22.85;nan;95058.88;2080330;28;1032;-62
2022/05/14 03:10:33;;;;;;;;;;;;;;;22.86;nan;95060.50;2075847;28;1073;-67
2022/05/14 03:11:35;;;;;;;;;;;;;;;22.87;nan;95058.63;2079329;28;1147;-66
2022/05/14 03:12:37;;;;;;;;;;;;;;;22.87;nan;95056.75;2073656;28;1201;-68
2022/05/14 03:13:38;;;;;;;;;;;;;;;22.87;nan;95053.25;2075883;28;1602;-65
2022/05/14 03:14:40;;;;;;;;;;;;;;;22.87;nan;95046.03;2082165;28;1099;-66
2022/05/14 03:15:42;;;;;;;;;;;;;;;22.85;nan;95050.81;2082018;28;1109;-67
2022/05/14 03:16:43;;;;;;;;;;;;;;;22.85;nan;95050.81;2073839;28;1609;-66
2022/05/14 03:17:45;;;;;;;;;;;;;;;22.85;nan;95058.88;2076358;28;1665;-66
2022/05/14 03:18:47;;;;;;;;;;;;;;;22.87;nan;95053.25;2082320;28;1143;-66
2022/05/14 03:19:49;;;;;;;;;;;;;;;22.87;nan;95054.06;2080184;28;1517;-65
2022/05/14 03:20:51;;;;;;;;;;;;;;;22.87;nan;95053.25;2075258;28;1633;-65
2022/05/14 03:21:53;;;;;;;;;;;;;;;22.88;nan;95053.06;2067331;28;1059;-65
2022/05/14 03:22:54;;;;;;;;;;;;;;;22.89;nan;95065.41;2088513;28;1327;-63
2022/05/14 03:23:56;;;;;;;;;;;;;;;22.91;nan;95060.63;2088796;28;1301;-64
2022/05/14 03:24:58;;;;;;;;;;;;;;;22.90;nan;95067.03;2073720;28;969;-64
2022/05/14 03:25:59;;;;;;;;;;;;;;;22.90;nan;95061.66;2073744;28;1016;-64
2022/05/14 03:27:01;;;;;;;;;;;;;;;22.90;nan;95060.84;2078315;28;1465;-64
2022/05/14 03:28:03;;;;;;;;;;;;;;;22.90;nan;95061.66;2082041;28;1017;-65
2022/05/14 03:29:05;;;;;;;;;;;;;;;22.91;nan;95062.50;2081711;28;1902;-65
2022/05/14 03:30:06;;;;;;;;;;;;;;;22.90;nan;95067.03;2075897;28;1523;-64
2022/05/14 03:31:09;;;;;;;;;;;;;;;22.91;nan;95057.16;2071631;28;1427;-64
2022/05/14 03:32:10;;;;;;;;;;;;;;;22.89;nan;95057.34;2072757;28;1032;-63
2022/05/14 03:33:12;;;;;;;;;;;;;;;22.89;nan;95068.06;2065975;28;1583;-64
2022/05/14 03:34:14;;;;;;;;;;;;;;;22.91;nan;95062.50;2066409;28;1708;-64
2022/05/14 03:35:16;;;;;;;;;;;;;;;22.90;nan;95061.66;2065606;28;1160;-64
2022/05/14 03:36:17;;;;;;;;;;;;;;;22.92;nan;95069.50;2065566;28;1164;-64
2022/05/14 03:37:19;;;;;;;;;;;;;;;22.91;nan;95071.34;2080965;28;979;-64
2022/05/14 03:38:21;;;;;;;;;;;;;;;22.93;nan;95071.13;2080562;28;1061;-65
2022/05/14 03:39:22;;;;;;;;;;;;;;;22.92;nan;95070.31;2070804;28;1504;-63
2022/05/14 03:40:24;;;;;;;;;;;;;;;22.93;nan;95071.13;2074727;28;1590;-64
2022/05/14 03:41:25;;;;;;;;;;;;;;;22.91;nan;95068.69;2073496;28;1692;-64
2022/05/14 03:42:27;;;;;;;;;;;;;;;22.91;nan;95066.00;2073420;28;1021;-63
2022/05/14 03:43:30;;;;;;;;;;;;;;;22.91;nan;95070.53;2070447;28;1601;-64
2022/05/14 03:44:31;;;;;;;;;;;;;;;22.91;nan;95073.22;2060672;28;1760;-64
2022/05/14 03:45:33;;;;;;;;;;;;;;;22.64;nan;95067.31;2073064;28;1065;-64
2022/05/14 03:46:35;;;;;;;;;;;;;;;21.97;nan;95067.97;2073577;28;1029;-66
2022/05/14 03:47:37;;;;;;;;;;;;;;;21.61;nan;95069.44;2073818;28;1108;-64
2022/05/14 03:48:39;;;;;;;;;;;;;;;21.19;nan;95070.94;2068486;28;1842;-65
2022/05/14 03:49:40;;;;;;;;;;;;;;;20.88;nan;95069.00;2071111;28;1910;-64
2022/05/14 03:50:42;;;;;;;;;;;;;;;20.71;nan;95074.81;2075690;28;1608;-66
2022/05/14 03:51:44;;;;;;;;;;;;;;;20.69;nan;95076.91;2076445;28;1528;-68
2022/05/14 03:52:45;;;;;;;;;;;;;;;20.64;nan;95078.56;2074809;28;1616;-64
2022/05/14 03:53:47;;;;;;;;;;;;;;;20.64;nan;95068.69;2073407;28;1005;-64
2022/05/14 03:54:49;;;;;;;;;;;;;;;20.46;nan;95071.19;2079025;28;1503;-63
2022/05/14 03:55:50;;;;;;;;;;;;;;;20.34;nan;95079.00;2073023;28;1549;-63
2022/05/14 03:56:52;;;;;;;;;;;;;;;20.23;nan;95077.81;2078282;28;1533;-64
2022/05/14 03:57:54;;;;;;;;;;;;;;;20.17;nan;95080.47;2073858;28;1014;-65
2022/05/14 03:58:55;;;;;;;;;;;;;;;20.09;nan;95081.53;2073727;28;1033;-63
2022/05/14 03:59:58;;;;;;;;;;;;;;;20.12;nan;95078.44;2078350;28;1494;-64
2022/05/14 04:01:01;;;;;;;;;;;;;;;20.08;nan;95074.53;2076300;28;1604;-65
2022/05/14 04:02:04;;;;;;;;;;;;;;;20.11;nan;95068.78;2073852;28;792;-65
2022/05/14 04:03:07;;;;;;;;;;;;;;;20.02;nan;95072.69;2073723;28;1032;-65
2022/05/14 04:04:08;;;;;;;;;;;;;;;19.94;nan;95079.03;2073608;28;1649;-65
2022/05/14 04:05:11;;;;;;;;;;;;;;;20.05;nan;95080.28;2073652;28;994;-64
2022/05/14 04:06:13;;;;;;;;;;;;;;;19.99;nan;95075.78;2089035;28;1023;-65
2022/05/14 04:07:14;;;;;;;;;;;;;;;19.82;nan;95084.19;2072967;28;1643;-65
2022/05/14 04:08:17;;;;;;;;;;;;;;;19.69;nan;95076.19;2071801;28;1691;-64
2022/05/14 04:09:19;;;;;;;;;;;;;;;19.87;nan;95075.56;2066680;28;1906;-64
2022/05/14 04:10:21;;;;;;;;;;;;;;;20.06;nan;95077.41;2072770;28;1506;-63
2022/05/14 04:11:23;;;;;;;;;;;;;;;19.98;nan;95079.47;2079744;28;1183;-65
2022/05/14 04:12:27;;;;;;;;;;;;;;;19.99;nan;95084.59;2073388;28;1527;-64
2022/05/14 04:13:28;;;;;;;;;;;;;;;20.14;nan;95083.56;2074720;28;1522;-65
2022/05/14 04:14:30;;;;;;;;;;;;;;;20.17;nan;95083.94;2081738;28;898;-63
2022/05/14 04:15:31;;;;;;;;;;;;;;;20.09;nan;95097.53;2081506;28;1005;-64
2022/05/14 04:16:33;;;;;;;;;;;;;;;20.05;nan;95091.75;2074307;28;1719;-65
2022/05/14 04:17:35;;;;;;;;;;;;;;;19.96;nan;95089.53;2073030;28;1600;-65
2022/05/14 04:18:36;;;;;;;;;;;;;;;19.79;nan;95089.94;2072564;28;1593;-64
2022/05/14 04:19:38;;;;;;;;;;;;;;;19.82;nan;95086.84;2076053;28;1698;-64
2022/05/14 04:20:40;;;;;;;;;;;;;;;19.76;nan;95087.66;2072802;28;1633;-64
2022/05/14 04:21:41;;;;;;;;;;;;;;;19.69;nan;95096.69;2073160;28;1671;-64
2022/05/14 04:22:43;;;;;;;;;;;;;;;19.75;nan;95102.03;2072398;28;1394;-65
2022/05/14 04:23:45;;;;;;;;;;;;;;;19.76;nan;95093.00;2083797;28;1609;-65
2022/05/14 04:24:46;;;;;;;;;;;;;;;19.77;nan;95099.97;2088118;28;1044;-63
2022/05/14 04:25:52;;;;;;;;;;;;;;;19.78;nan;95096.28;2072659;28;1507;-65
2022/05/14 04:26:54;;;;;;;;;;;;;;;19.77;nan;95093.81;2071762;28;1485;-65
2022/05/14 04:27:55;;;;;;;;;;;;;;;19.77;nan;95099.97;2072257;28;1809;-65
2022/05/14 04:28:57;;;;;;;;;;;;;;;19.80;nan;95090.75;2072734;28;1705;-60
2022/05/14 04:29:58;;;;;;;;;;;;;;;19.95;nan;95106.56;2064866;28;1938;-64
2022/05/14 04:31:00;;;;;;;;;;;;;;;20.00;nan;95106.75;2073429;28;1091;-63
2022/05/14 04:32:02;;;;;;;;;;;;;;;19.96;nan;95105.53;2073679;28;918;-65
2022/05/14 04:33:04;;;;;;;;;;;;;;;19.89;nan;95103.69;2073532;28;1129;-64
2022/05/14 04:34:06;;;;;;;;;;;;;;;19.72;nan;95110.44;2077813;28;1540;-64
2022/05/14 04:35:08;;;;;;;;;;;;;;;19.77;nan;95109.81;2073470;28;1652;-65
2022/05/14 04:36:10;;;;;;;;;;;;;;;19.84;nan;95110.66;2073330;28;1787;-65
2022/05/14 04:37:11;;;;;;;;;;;;;;;19.78;nan;95106.16;2073301;28;1104;-65
2022/05/14 04:38:13;;;;;;;;;;;;;;;19.82;nan;95108.19;2083381;28;1465;-65
2022/05/14 04:39:15;;;;;;;;;;;;;;;19.74;nan;95111.03;2073604;28;1535;-65
2022/05/14 04:40:16;;;;;;;;;;;;;;;19.71;nan;95111.44;2075196;28;1597;-64
2022/05/14 04:41:18;;;;;;;;;;;;;;;19.73;nan;95113.94;2068689;28;1616;-65
2022/05/14 04:42:19;;;;;;;;;;;;;;;19.69;nan;95112.66;2077979;28;1653;-65
2022/05/14 04:43:21;;;;;;;;;;;;;;;19.76;nan;95111.66;2081054;28;1812;-64
2022/05/14 04:44:23;;;;;;;;;;;;;;;19.83;nan;95115.16;2072941;28;1628;-65
2022/05/14 04:45:24;;;;;;;;;;;;;;;19.84;nan;95116.81;2072743;28;1696;-65
2022/05/14 04:46:26;;;;;;;;;;;;;;;19.86;nan;95114.75;2073531;28;1014;-65
2022/05/14 04:47:28;;;;;;;;;;;;;;;19.81;nan;95122.53;2072958;28;1762;-65
2022/05/14 04:48:29;;;;;;;;;;;;;;;19.75;nan;95115.38;2073288;28;1225;-65
2022/05/14 04:49:31;;;;;;;;;;;;;;;19.87;nan;95121.72;2073859;28;1906;-65
2022/05/14 04:50:33;;;;;;;;;;;;;;;19.99;nan;95118.44;2068843;28;1473;-65
2022/05/14 04:51:34;;;;;;;;;;;;;;;20.14;nan;95121.72;2077693;28;1777;-63
2022/05/14 04:52:36;;;;;;;;;;;;;;;20.22;nan;95123.34;2072846;28;1342;-66
2022/05/14 04:53:37;;;;;;;;;;;;;;;20.15;nan;95120.72;2080547;28;1509;-66
2022/05/14 04:54:39;;;;;;;;;;;;;;;20.28;nan;95123.34;2077750;28;1665;-65
2022/05/14 04:55:41;;;;;;;;;;;;;;;20.30;nan;95117.81;2078106;28;1532;-65
2022/05/14 04:56:44;;;;;;;;;;;;;;;20.31;nan;95119.44;2081270;28;1429;-66
2022/05/14 04:57:46;;;;;;;;;;;;;;;20.32;nan;95124.59;2083477;28;985;-66
2022/05/14 04:58:47;;;;;;;;;;;;;;;20.22;nan;95126.84;2083375;28;1070;-67
2022/05/14 04:59:49;;;;;;;;;;;;;;;20.07;nan;95124.38;2083186;28;1021;-67
2022/05/14 05:00:51;;;;;;;;;;;;;;;20.43;nan;95125.00;2083238;28;985;-65
2022/05/14 05:03:19;;;;;;;;;;;;;;;20.63;nan;95131.13;2079082;28;1296;-65
2022/05/14 05:04:21;;;;;;;;;;;;;;;20.57;nan;95121.28;2078712;28;1650;-66
2022/05/14 05:05:23;;;;;;;;;;;;;;;20.18;nan;95127.47;2083316;28;1040;-65
2022/05/14 05:06:25;;;;;;;;;;;;;;;20.15;nan;95128.72;2083317;28;1270;-67
2022/05/14 05:07:26;;;;;;;;;;;;;;;19.74;nan;95126.22;2083037;28;1016;-66
2022/05/14 05:08:30;;;;;;;;;;;;;;;19.98;nan;95132.81;2083335;28;1029;-65
2022/05/14 05:09:32;;;;;;;;;;;;;;;20.10;nan;95123.16;2083522;28;1111;-65
2022/05/14 05:10:34;;;;;;;;;;;;;;;20.12;nan;95129.13;2083200;28;1902;-65
2022/05/14 05:11:35;;;;;;;;;;;;;;;20.02;nan;95128.69;2080417;28;1092;-65
2022/05/14 05:12:37;;;;;;;;;;;;;;;20.18;nan;95128.28;2074951;28;1205;-65
2022/05/14 05:13:38;;;;;;;;;;;;;;;20.28;nan;95131.34;2075193;28;1171;-66
2022/05/14 05:14:41;;;;;;;;;;;;;;;20.39;nan;95124.59;2070273;28;1087;-66
2022/05/14 05:15:43;;;;;;;;;;;;;;;20.32;nan;95137.94;2070403;28;1149;-65
2022/05/14 05:16:44;;;;;;;;;;;;;;;20.19;nan;95129.09;2074411;28;1093;-64
2022/05/14 05:17:46;;;;;;;;;;;;;;;20.09;nan;95127.69;2074478;28;1117;-65
2022/05/14 05:18:48;;;;;;;;;;;;;;;20.13;nan;95128.09;2075171;28;1050;-65
2022/05/14 05:19:49;;;;;;;;;;;;;;;19.76;nan;95137.50;2075164;28;1017;-65
2022/05/14 05:20:53;;;;;;;;;;;;;;;19.48;nan;95135.78;2075181;28;1104;-65
2022/05/14 05:21:55;;;;;;;;;;;;;;;19.68;nan;95138.50;2074924;28;1084;-65
2022/05/14 05:22:56;;;;;;;;;;;;;;;20.00;nan;95128.06;2075164;28;1076;-65
2022/05/14 05:23:58;;;;;;;;;;;;;;;20.11;nan;95136.28;2075093;28;1033;-64
2022/05/14 05:24:59;;;;;;;;;;;;;;;19.92;nan;95134.44;2075031;28;1036;-64
2022/05/14 05:26:05;;;;;;;;;;;;;;;19.96;nan;95132.19;2070580;28;1638;-65
2022/05/14 05:27:06;;;;;;;;;;;;;;;20.14;nan;95131.56;2070631;28;1198;-64
2022/05/14 05:28:08;;;;;;;;;;;;;;;20.29;nan;95132.19;2075110;28;1025;-64
2022/05/14 05:29:10;;;;;;;;;;;;;;;20.29;nan;95127.66;2073940;28;962;-62
2022/05/14 05:30:12;;;;;;;;;;;;;;;20.28;nan;95139.34;2074519;28;1977;-64
2022/05/14 05:31:13;;;;;;;;;;;;;;;20.26;nan;95132.56;2075171;28;935;-64
2022/05/14 05:32:15;;;;;;;;;;;;;;;20.26;nan;95136.09;2075099;28;1096;-64
2022/05/14 05:33:19;;;;;;;;;;;;;;;20.29;nan;95140.19;2075253;28;1009;-64
2022/05/14 05:34:20;;;;;;;;;;;;;;;20.30;nan;95131.97;2074974;28;1114;-64
2022/05/14 05:35:22;;;;;;;;;;;;;;;20.29;nan;95141.00;2074865;28;974;-64
2022/05/14 05:36:25;;;;;;;;;;;;;;;20.36;nan;95138.31;2074673;28;1017;-65
2022/05/14 05:37:26;;;;;;;;;;;;;;;20.41;nan;95140.41;2070462;28;1022;-64
2022/05/14 05:38:28;;;;;;;;;;;;;;;20.37;nan;95142.66;2070512;28;1202;-63
2022/05/14 05:39:29;;;;;;;;;;;;;;;20.39;nan;95145.13;2075088;28;1002;-64
2022/05/14 05:40:31;;;;;;;;;;;;;;;20.28;nan;95150.03;2074714;28;1089;-64
2022/05/14 05:41:33;;;;;;;;;;;;;;;20.35;nan;95160.72;2075116;28;1014;-64
2022/05/14 05:42:34;;;;;;;;;;;;;;;20.32;nan;95156.59;2074929;28;980;-64
2022/05/14 05:43:36;;;;;;;;;;;;;;;20.34;nan;95151.91;2074991;28;1016;-64
2022/05/14 05:44:38;;;;;;;;;;;;;;;20.38;nan;95151.50;2074684;28;1001;-64
2022/05/14 05:45:40;;;;;;;;;;;;;;;20.44;nan;95158.69;2074837;28;1674;-65